createdAt,value
2022-09-18T00:01:38.025Z,17.88
2022-09-18T00:04:09.163Z,17.94
2022-09-18T00:06:42.172Z,17.91
2022-09-18T00:09:12.969Z,17.87
2022-09-18T00:11:44.282Z,17.90
2022-09-18T00:14:15.143Z,17.88
2022-09-18T00:16:43.985Z,17.82
2022-09-18T00:19:12.701Z,17.84
2022-09-18T00:21:44.383Z,17.79
2022-09-18T00:24:13.467Z,17.75
2022-09-18T00:26:42.066Z,17.74
2022-09-18T00:29:11.190Z,17.76
2022-09-18T00:31:40.019Z,17.79
2022-09-18T00:34:11.391Z,17.75
2022-09-18T00:36:40.408Z,17.73
2022-09-18T00:39:10.095Z,17.66
2022-09-18T00:41:40.605Z,17.77
2022-09-18T00:44:40.578Z,17.78
2022-09-18T00:47:19.170Z,17.69
2022-09-18T00:49:52.580Z,17.73
2022-09-18T00:52:23.407Z,17.75
2022-09-18T00:54:56.987Z,17.72
2022-09-18T00:57:29.388Z,17.70
2022-09-18T00:59:58.625Z,17.63
2022-09-18T01:02:26.915Z,17.58
2022-09-18T01:04:55.670Z,17.64
2022-09-18T01:07:37.482Z,17.62
2022-09-18T01:10:19.036Z,17.68
2022-09-18T01:12:53.843Z,17.64
2022-09-18T01:15:35.294Z,17.62
2022-09-18T01:18:11.933Z,17.60
2022-09-18T01:21:13.125Z,17.56
2022-09-18T01:24:13.171Z,17.60
2022-09-18T01:26:56.346Z,17.61
2022-09-18T01:29:36.918Z,17.61
2022-09-18T01:32:09.854Z,17.59
2022-09-18T01:34:47.332Z,17.54
2022-09-18T01:37:21.482Z,17.58
2022-09-18T01:39:55.630Z,17.56
2022-09-18T01:42:27.265Z,17.50
2022-09-18T01:45:02.111Z,17.39
2022-09-18T01:47:37.142Z,17.37
2022-09-18T01:50:07.703Z,17.32
2022-09-18T01:52:41.480Z,17.32
2022-09-18T01:55:16.708Z,17.35
2022-09-18T01:57:50.998Z,17.26
2022-09-18T02:00:22.982Z,17.22
2022-09-18T02:02:55.730Z,17.15
2022-09-18T02:05:28.042Z,17.11
2022-09-18T02:08:05.831Z,16.99
2022-09-18T02:10:36.860Z,17.03
2022-09-18T02:13:08.554Z,17.03
2022-09-18T02:15:41.483Z,17.14
2022-09-18T02:18:14.397Z,17.19
2022-09-18T02:20:45.741Z,17.31
2022-09-18T02:23:14.060Z,17.28
2022-09-18T02:25:47.097Z,17.33
2022-09-18T02:28:18.702Z,17.30
2022-09-18T02:30:49.268Z,17.30
2022-09-18T02:33:28.692Z,17.36
2022-09-18T02:36:53.151Z,17.33
2022-09-18T02:39:42.381Z,17.36
2022-09-18T02:42:25.915Z,17.35
2022-09-18T02:45:04.886Z,17.43
2022-09-18T02:47:47.487Z,17.53
2022-09-18T02:50:19.536Z,17.70
2022-09-18T02:52:55.955Z,17.71
2022-09-18T02:55:28.867Z,17.72
2022-09-18T02:58:01.993Z,17.75
2022-09-18T03:00:32.299Z,17.80
2022-09-18T03:03:02.329Z,17.93
2022-09-18T03:05:30.723Z,18.03
2022-09-18T03:07:58.870Z,18.21
2022-09-18T03:10:27.054Z,18.31
2022-09-18T03:12:55.140Z,18.31
2022-09-18T03:15:23.462Z,18.37
2022-09-18T03:17:51.655Z,18.48
2022-09-18T03:20:21.126Z,18.51
2022-09-18T03:22:49.710Z,18.49
2022-09-18T03:25:17.873Z,18.46
2022-09-18T03:27:45.936Z,18.58
2022-09-18T03:30:14.251Z,18.55
2022-09-18T03:32:42.324Z,18.57
2022-09-18T03:35:11.010Z,18.51
2022-09-18T03:37:40.638Z,18.51
2022-09-18T03:40:10.311Z,18.55
2022-09-18T03:42:38.669Z,18.41
2022-09-18T03:45:08.252Z,18.44
2022-09-18T03:47:36.901Z,18.26
2022-09-18T03:50:06.090Z,18.31
2022-09-18T03:52:34.938Z,18.22
2022-09-18T03:55:04.904Z,18.26
2022-09-18T03:57:32.976Z,18.14
2022-09-18T04:00:01.088Z,18.19
2022-09-18T04:02:29.399Z,18.18
2022-09-18T04:04:57.902Z,18.18
2022-09-18T04:07:26.309Z,18.23
2022-09-18T04:09:54.793Z,18.14
2022-09-18T04:12:24.623Z,18.15
2022-09-18T04:14:52.797Z,18.11
2022-09-18T04:17:20.899Z,18.17
2022-09-18T04:19:53.421Z,18.01
2022-09-18T04:22:22.121Z,18.01
2022-09-18T04:24:51.518Z,18.17
2022-09-18T04:27:19.864Z,18.21
2022-09-18T04:29:49.430Z,18.16
2022-09-18T04:32:17.552Z,18.07
2022-09-18T04:34:45.723Z,18.18
2022-09-18T04:37:14.042Z,18.03
2022-09-18T04:39:42.200Z,17.86
2022-09-18T04:42:10.296Z,17.80
2022-09-18T04:44:38.731Z,17.79
2022-09-18T04:47:08.481Z,17.77
2022-09-18T04:49:36.595Z,17.57
2022-09-18T04:52:04.850Z,17.38
2022-09-18T04:54:33.001Z,17.29
2022-09-18T04:57:01.055Z,17.31
2022-09-18T04:59:29.122Z,17.39
2022-09-18T05:01:57.267Z,17.09
2022-09-18T05:04:26.909Z,17.25
2022-09-18T05:06:55.102Z,17.04
2022-09-18T05:09:23.296Z,16.96
2022-09-18T05:11:52.197Z,16.84
2022-09-18T05:14:20.471Z,17.03
2022-09-18T05:16:48.798Z,16.89
2022-09-18T05:19:16.860Z,16.74
2022-09-18T05:21:46.438Z,16.99
2022-09-18T05:24:14.781Z,17.17
2022-09-18T05:26:42.862Z,17.42
2022-09-18T05:29:10.977Z,18.05
2022-09-18T05:31:39.139Z,18.07
2022-09-18T05:34:07.279Z,17.49
2022-09-18T05:36:35.351Z,17.67
2022-09-18T05:39:05.206Z,17.50
2022-09-18T05:41:33.285Z,18.01
2022-09-18T05:44:01.416Z,18.42
2022-09-18T05:46:29.586Z,19.10
2022-09-18T05:48:57.804Z,19.71
2022-09-18T05:51:26.371Z,19.92
2022-09-18T05:53:54.493Z,19.16
2022-09-18T05:56:24.294Z,19.32
2022-09-18T05:58:52.455Z,19.75
2022-09-18T06:01:20.981Z,19.65
2022-09-18T06:03:50.830Z,19.60
2022-09-18T06:06:19.023Z,19.14
2022-09-18T06:08:47.361Z,19.66
2022-09-18T06:11:15.749Z,19.28
2022-09-18T06:13:49.063Z,19.47
2022-09-18T06:16:17.501Z,19.40
2022-09-18T06:18:45.891Z,18.84
2022-09-18T06:21:15.239Z,19.12
2022-09-18T06:23:43.665Z,19.12
2022-09-18T06:26:14.986Z,18.50
2022-09-18T06:28:45.051Z,17.69
2022-09-18T06:31:13.269Z,17.14
2022-09-18T06:33:41.420Z,16.73
2022-09-18T06:36:14.069Z,16.43
2022-09-18T06:38:42.171Z,16.30
2022-09-18T06:41:10.652Z,16.18
2022-09-18T06:43:38.850Z,16.39
2022-09-18T06:46:10.564Z,16.04
2022-09-18T06:48:38.752Z,15.88
2022-09-18T06:51:07.199Z,16.67
2022-09-18T06:53:35.367Z,16.80
2022-09-18T06:56:04.161Z,16.60
2022-09-18T06:58:32.227Z,16.81
2022-09-18T07:01:01.496Z,16.87
2022-09-18T07:03:31.247Z,16.77
2022-09-18T07:05:59.459Z,16.41
2022-09-18T07:08:27.650Z,16.30
2022-09-18T07:10:55.719Z,16.18
2022-09-18T07:13:24.154Z,16.30
2022-09-18T07:15:52.434Z,16.18
2022-09-18T07:18:21.381Z,16.23
2022-09-18T07:20:50.880Z,16.34
2022-09-18T07:23:19.140Z,16.43
2022-09-18T07:25:47.831Z,16.39
2022-09-18T07:28:15.911Z,16.25
2022-09-18T07:30:44.269Z,16.42
2022-09-18T07:33:12.379Z,16.59
2022-09-18T07:35:41.673Z,16.58
2022-09-18T07:38:11.760Z,16.52
2022-09-18T07:40:41.285Z,16.45
2022-09-18T07:43:11.646Z,16.45
2022-09-18T07:45:40.614Z,16.41
2022-09-18T07:48:09.234Z,16.06
2022-09-18T07:50:37.304Z,16.24
2022-09-18T07:53:07.621Z,16.55
2022-09-18T07:55:37.659Z,16.72
2022-09-18T07:58:08.023Z,16.26
2022-09-18T08:00:39.200Z,16.57
2022-09-18T08:03:09.556Z,16.41
2022-09-18T08:05:37.856Z,16.68
2022-09-18T08:08:06.418Z,16.68
2022-09-18T08:10:36.751Z,17.07
2022-09-18T08:13:05.106Z,17.15
2022-09-18T08:15:34.543Z,17.30
2022-09-18T08:18:02.767Z,17.18
2022-09-18T08:20:31.003Z,17.22
2022-09-18T08:22:59.268Z,17.32
2022-09-18T08:25:28.622Z,17.36
2022-09-18T08:28:01.754Z,17.40
2022-09-18T08:30:30.682Z,17.39
2022-09-18T08:33:00.162Z,17.49
2022-09-18T08:35:28.723Z,17.46
2022-09-18T08:37:56.823Z,17.39
2022-09-18T08:40:41.182Z,17.30
2022-09-18T08:43:23.234Z,17.49
2022-09-18T08:45:58.627Z,17.47
2022-09-18T08:48:30.105Z,17.68
2022-09-18T08:51:02.735Z,17.64
2022-09-18T08:53:35.925Z,17.75
2022-09-18T08:56:14.057Z,17.44
2022-09-18T08:58:50.287Z,17.42
2022-09-18T09:01:20.565Z,17.51
2022-09-18T09:03:56.717Z,17.84
2022-09-18T09:06:42.642Z,18.15
2022-09-18T09:09:25.573Z,18.27
2022-09-18T09:12:03.076Z,18.16
2022-09-18T09:14:56.571Z,17.93
2022-09-18T09:17:41.442Z,18.09
2022-09-18T09:20:37.320Z,17.99
2022-09-18T09:23:07.959Z,17.65
2022-09-18T09:25:45.835Z,17.81
2022-09-18T09:28:18.153Z,17.82
2022-09-18T09:30:54.718Z,17.64
2022-09-18T09:33:28.117Z,17.82
2022-09-18T09:36:02.910Z,18.15
2022-09-18T09:38:39.351Z,18.46
2022-09-18T09:41:27.790Z,18.71
2022-09-18T09:44:04.482Z,18.63
2022-09-18T09:46:49.575Z,18.69
2022-09-18T09:49:24.271Z,18.70
2022-09-18T09:52:00.002Z,18.56
2022-09-18T09:54:28.238Z,18.54
2022-09-18T09:57:09.044Z,18.55
2022-09-18T09:59:46.542Z,18.66
2022-09-18T10:02:33.812Z,18.81
2022-09-18T10:05:08.530Z,18.87
2022-09-18T10:07:42.416Z,18.95
2022-09-18T10:10:23.815Z,18.84
2022-09-18T10:12:55.997Z,18.93
2022-09-18T10:15:27.695Z,18.88
2022-09-18T10:18:00.828Z,18.92
2022-09-18T10:20:31.819Z,18.98
2022-09-18T10:23:04.050Z,18.93
2022-09-18T10:25:39.136Z,19.04
2022-09-18T10:28:07.241Z,19.11
2022-09-18T10:30:35.710Z,19.20
2022-09-18T10:33:05.356Z,19.08
2022-09-18T10:35:52.768Z,19.18
2022-09-18T10:38:32.393Z,19.19
2022-09-18T10:41:32.184Z,19.18
2022-09-18T10:44:08.704Z,19.18
2022-09-18T10:46:40.933Z,18.97
2022-09-18T10:49:21.065Z,18.81
2022-09-18T10:51:49.289Z,18.85
2022-09-18T10:54:19.932Z,19.01
2022-09-18T10:56:48.012Z,18.96
2022-09-18T10:59:34.127Z,19.04
2022-09-18T11:02:05.189Z,19.13
2022-09-18T11:04:35.648Z,19.10
2022-09-18T11:07:07.606Z,19.16
2022-09-18T11:09:39.870Z,19.34
2022-09-18T11:12:16.121Z,19.60
2022-09-18T11:14:48.083Z,19.70
2022-09-18T11:17:25.578Z,19.91
2022-09-18T11:19:57.264Z,19.99
2022-09-18T11:22:39.102Z,20.11
2022-09-18T11:25:23.014Z,19.95
2022-09-18T11:27:52.679Z,20.11
2022-09-18T11:30:23.672Z,20.04
2022-09-18T11:32:55.745Z,19.97
2022-09-18T11:35:27.735Z,20.08
2022-09-18T11:37:59.199Z,19.96
2022-09-18T11:40:31.565Z,19.96
2022-09-18T11:43:05.517Z,20.13
2022-09-18T11:45:51.051Z,20.33
2022-09-18T11:48:31.099Z,20.42
2022-09-18T11:51:03.516Z,20.30
2022-09-18T11:53:35.355Z,20.25
2022-09-18T11:56:08.587Z,19.92
2022-09-18T11:58:42.495Z,20.01
2022-09-18T12:01:22.163Z,20.27
2022-09-18T12:03:57.405Z,20.46
2022-09-18T12:06:36.096Z,20.83
2022-09-18T12:09:14.998Z,20.77
2022-09-18T12:11:50.160Z,20.81
2022-09-18T12:14:23.015Z,20.50
2022-09-18T12:16:59.023Z,20.38
2022-09-18T12:19:33.038Z,20.42
2022-09-18T12:22:10.208Z,20.41
2022-09-18T12:24:38.304Z,20.54
2022-09-18T12:27:16.558Z,20.83
2022-09-18T12:30:02.490Z,20.93
2022-09-18T12:32:56.156Z,20.98
2022-09-18T12:35:36.340Z,20.97
2022-09-18T12:38:18.380Z,20.73
2022-09-18T12:41:05.703Z,20.84
2022-09-18T12:43:50.577Z,20.75
2022-09-18T12:46:51.199Z,20.61
2022-09-18T12:49:36.901Z,20.59
2022-09-18T12:52:16.986Z,20.73
2022-09-18T12:55:21.603Z,20.61
2022-09-18T12:58:02.411Z,20.75
2022-09-18T13:00:31.402Z,20.77
2022-09-18T13:03:09.199Z,20.78
2022-09-18T13:05:41.527Z,20.78
2022-09-18T13:08:16.460Z,20.83
2022-09-18T13:10:47.687Z,20.82
2022-09-18T13:13:21.237Z,20.92
2022-09-18T13:15:52.754Z,20.87
2022-09-18T13:18:30.991Z,20.38
2022-09-18T13:21:01.116Z,20.60
2022-09-18T13:23:36.319Z,20.82
2022-09-18T13:26:09.036Z,20.66
2022-09-18T13:28:37.696Z,20.76
2022-09-18T13:31:28.152Z,20.83
2022-09-18T13:33:58.679Z,20.62
2022-09-18T13:36:29.599Z,20.63
2022-09-18T13:39:02.394Z,20.72
2022-09-18T13:41:43.255Z,20.94
2022-09-18T13:44:20.956Z,20.92
2022-09-18T13:46:50.862Z,20.54
2022-09-18T13:49:30.238Z,20.36
2022-09-18T13:52:18.556Z,20.29
2022-09-18T13:55:01.550Z,20.32
2022-09-18T13:57:34.269Z,20.31
2022-09-18T14:00:09.135Z,20.34
2022-09-18T14:02:38.807Z,20.50
2022-09-18T14:05:27.744Z,20.56
2022-09-18T14:08:10.685Z,20.48
2022-09-18T14:11:14.035Z,20.39
2022-09-18T14:13:54.377Z,20.30
2022-09-18T14:16:32.356Z,20.24
2022-09-18T14:19:05.864Z,20.16
2022-09-18T14:21:40.318Z,19.86
2022-09-18T14:24:38.497Z,19.89
2022-09-18T14:27:35.975Z,19.98
2022-09-18T14:30:17.237Z,19.71
2022-09-18T14:33:03.607Z,19.70
2022-09-18T14:35:37.181Z,19.47
2022-09-18T14:38:18.801Z,19.52
2022-09-18T14:40:54.393Z,19.52
2022-09-18T14:43:24.869Z,19.55
2022-09-18T14:45:55.263Z,19.46
2022-09-18T14:48:29.285Z,19.50
2022-09-18T14:51:06.745Z,19.52
2022-09-18T14:53:43.911Z,19.37
2022-09-18T14:56:17.696Z,19.36
2022-09-18T14:58:50.572Z,19.30
2022-09-18T15:01:25.007Z,19.38
2022-09-18T15:03:54.862Z,19.53
2022-09-18T15:06:26.912Z,19.46
2022-09-18T15:08:56.958Z,19.38
2022-09-18T15:11:37.539Z,19.27
2022-09-18T15:14:22.765Z,19.26
2022-09-18T15:16:59.456Z,19.36
2022-09-18T15:19:28.367Z,19.23
2022-09-18T15:21:57.242Z,19.19
2022-09-18T15:24:25.926Z,19.21
2022-09-18T15:26:56.873Z,19.24
2022-09-18T15:29:31.097Z,19.23
2022-09-18T15:32:04.198Z,19.19
2022-09-18T15:34:41.910Z,19.08
2022-09-18T15:37:20.744Z,19.01
2022-09-18T15:39:59.939Z,18.86
2022-09-18T15:42:30.620Z,18.72
2022-09-18T15:45:20.439Z,18.55
2022-09-18T15:47:50.524Z,18.56
2022-09-18T15:50:39.209Z,18.47
2022-09-18T15:53:26.821Z,18.28
2022-09-18T15:56:04.171Z,18.13
2022-09-18T15:58:43.474Z,17.99
2022-09-18T16:01:28.735Z,17.88
2022-09-18T16:04:08.718Z,17.83
2022-09-18T16:06:44.176Z,17.65
2022-09-18T16:09:25.618Z,17.63
2022-09-18T16:11:54.046Z,17.56
2022-09-18T16:14:42.070Z,17.44
2022-09-18T16:17:41.349Z,17.38
2022-09-18T16:20:26.881Z,17.26
2022-09-18T16:22:58.238Z,17.15
2022-09-18T16:25:29.562Z,17.12
2022-09-18T16:27:59.715Z,17.00
2022-09-18T16:30:29.782Z,16.90
2022-09-18T16:33:03.314Z,16.78
2022-09-18T16:35:32.825Z,16.71
2022-09-18T16:38:00.938Z,16.71
2022-09-18T16:40:31.382Z,16.76
2022-09-18T16:42:59.511Z,16.77
2022-09-18T16:45:28.342Z,16.74
2022-09-18T16:48:00.620Z,16.64
2022-09-18T16:50:29.265Z,16.62
2022-09-18T16:53:01.564Z,16.52
2022-09-18T16:55:31.890Z,16.49
2022-09-18T16:58:01.202Z,16.48
2022-09-18T17:00:29.529Z,16.38
2022-09-18T17:02:57.945Z,16.35
2022-09-18T17:05:26.211Z,16.34
2022-09-18T17:07:54.335Z,16.33
2022-09-18T17:10:24.102Z,16.25
2022-09-18T17:12:52.174Z,16.19
2022-09-18T17:15:20.426Z,16.12
2022-09-18T17:17:48.515Z,16.08
2022-09-18T17:20:17.971Z,16.04
2022-09-18T17:22:46.601Z,15.99
2022-09-18T17:25:16.119Z,15.98
2022-09-18T17:27:45.784Z,15.80
2022-09-18T17:30:14.351Z,15.87
2022-09-18T17:32:42.442Z,15.86
2022-09-18T17:35:11.602Z,15.86
2022-09-18T17:37:39.807Z,15.85
2022-09-18T17:40:09.115Z,15.85
2022-09-18T17:42:38.129Z,15.81
2022-09-18T17:45:08.981Z,15.84
2022-09-18T17:47:37.108Z,15.82
2022-09-18T17:50:06.311Z,15.76
2022-09-18T17:52:35.864Z,15.70
2022-09-18T17:55:04.416Z,15.71
2022-09-18T17:57:38.223Z,15.66
2022-09-18T18:00:09.967Z,15.67
2022-09-18T18:02:38.130Z,15.69
2022-09-18T18:05:07.071Z,15.61
2022-09-18T18:07:35.264Z,15.63
2022-09-18T18:10:04.564Z,15.63
2022-09-18T18:12:32.651Z,15.64
2022-09-18T18:15:00.844Z,15.68
2022-09-18T18:17:36.032Z,15.67
2022-09-18T18:20:05.291Z,15.66
2022-09-18T18:22:33.407Z,15.57
2022-09-18T18:25:01.536Z,15.53
2022-09-18T18:27:29.763Z,15.52
2022-09-18T18:29:57.850Z,15.57
2022-09-18T18:32:25.948Z,15.51
2022-09-18T18:34:55.559Z,15.38
2022-09-18T18:37:23.794Z,15.33
2022-09-18T18:39:52.659Z,15.24
2022-09-18T18:42:21.027Z,15.17
2022-09-18T18:44:49.280Z,15.06
2022-09-18T18:47:18.225Z,15.03
2022-09-18T18:49:46.351Z,14.96
2022-09-18T18:52:15.904Z,14.92
2022-09-18T18:54:44.311Z,14.81
2022-09-18T18:57:12.461Z,14.78
2022-09-18T18:59:40.739Z,14.68
2022-09-18T19:02:11.146Z,14.52
2022-09-18T19:04:40.614Z,14.52
2022-09-18T19:07:08.765Z,14.50
2022-09-18T19:09:38.543Z,14.48
2022-09-18T19:12:06.891Z,14.27
2022-09-18T19:14:38.061Z,14.21
2022-09-18T19:17:06.616Z,14.25
2022-09-18T19:19:34.743Z,14.32
2022-09-18T19:22:03.011Z,14.13
2022-09-18T19:24:31.371Z,14.12
2022-09-18T19:27:01.207Z,13.98
2022-09-18T19:29:30.670Z,14.06
2022-09-18T19:32:00.383Z,14.10
2022-09-18T19:34:28.617Z,14.18
2022-09-18T19:36:56.746Z,14.17
2022-09-18T19:39:24.926Z,14.03
2022-09-18T19:41:59.436Z,14.00
2022-09-18T19:44:35.081Z,13.95
2022-09-18T19:47:07.045Z,13.97
2022-09-18T19:49:38.867Z,14.01
2022-09-18T19:52:18.036Z,13.91
2022-09-18T19:54:46.175Z,13.91
2022-09-18T19:57:14.745Z,13.85
2022-09-18T19:59:44.233Z,13.81
2022-09-18T20:02:13.913Z,13.89
2022-09-18T20:04:42.125Z,13.94
2022-09-18T20:07:10.890Z,13.91
2022-09-18T20:09:40.380Z,13.89
2022-09-18T20:12:09.277Z,13.88
2022-09-18T20:14:37.386Z,13.93
2022-09-18T20:17:07.002Z,13.97
2022-09-18T20:19:35.574Z,13.95
2022-09-18T20:22:04.485Z,13.97
2022-09-18T20:24:33.305Z,13.93
2022-09-18T20:27:01.873Z,13.97
2022-09-18T20:29:30.557Z,13.96
2022-09-18T20:31:58.776Z,13.97
2022-09-18T20:34:28.404Z,14.00
2022-09-18T20:36:56.526Z,13.99
2022-09-18T20:39:24.721Z,13.94
2022-09-18T20:41:52.847Z,13.92
2022-09-18T20:44:21.066Z,13.89
2022-09-18T20:46:50.531Z,13.85
2022-09-18T20:49:18.652Z,13.85
2022-09-18T20:51:48.229Z,13.78
2022-09-18T20:54:19.344Z,13.77
2022-09-18T20:56:47.559Z,13.77
2022-09-18T20:59:18.607Z,13.71
2022-09-18T21:01:47.793Z,13.67
2022-09-18T21:04:19.655Z,13.73
2022-09-18T21:06:56.604Z,13.76
2022-09-18T21:09:26.520Z,13.78
2022-09-18T21:11:55.094Z,13.81
2022-09-18T21:14:24.700Z,13.82
2022-09-18T21:16:52.838Z,13.87
2022-09-18T21:19:21.426Z,13.91
2022-09-18T21:21:50.958Z,13.92
2022-09-18T21:24:19.280Z,13.79
2022-09-18T21:26:49.248Z,13.78
2022-09-18T21:29:20.893Z,13.72
2022-09-18T21:31:51.540Z,13.72
2022-09-18T21:34:23.511Z,13.78
2022-09-18T21:36:54.330Z,13.85
2022-09-18T21:39:22.501Z,13.81
2022-09-18T21:41:53.288Z,13.79
2022-09-18T21:44:24.800Z,13.73
2022-09-18T21:46:52.995Z,13.63
2022-09-18T21:49:22.856Z,13.69
2022-09-18T21:51:55.910Z,13.61
2022-09-18T21:54:25.492Z,13.63
2022-09-18T21:56:55.358Z,13.56
2022-09-18T21:59:25.319Z,13.41
2022-09-18T22:01:55.453Z,13.33
2022-09-18T22:04:26.318Z,13.34
2022-09-18T22:06:57.767Z,13.26
2022-09-18T22:09:28.120Z,13.21
2022-09-18T22:11:57.379Z,13.18
2022-09-18T22:14:28.743Z,13.16
2022-09-18T22:16:57.054Z,13.09
2022-09-18T22:19:25.186Z,13.16
2022-09-18T22:21:55.360Z,13.09
2022-09-18T22:24:26.874Z,13.07
2022-09-18T22:26:57.874Z,13.00
2022-09-18T22:29:27.766Z,12.99
2022-09-18T22:31:56.806Z,13.06
2022-09-18T22:34:28.477Z,13.10
2022-09-18T22:36:59.578Z,13.18
2022-09-18T22:39:28.698Z,13.30
2022-09-18T22:41:57.408Z,13.29
2022-09-18T22:44:25.614Z,13.18
2022-09-18T22:46:54.898Z,13.30
2022-09-18T22:49:24.293Z,13.27
2022-09-18T22:51:52.799Z,13.28
2022-09-18T22:54:28.370Z,13.29
2022-09-18T22:56:57.020Z,13.39
2022-09-18T22:59:26.697Z,13.39
2022-09-18T23:01:57.957Z,13.37
2022-09-18T23:04:29.904Z,13.37
2022-09-18T23:06:59.309Z,13.35
2022-09-18T23:09:29.718Z,13.44
2022-09-18T23:11:59.028Z,13.41
2022-09-18T23:14:29.177Z,13.40
2022-09-18T23:16:58.131Z,13.40
2022-09-18T23:19:28.249Z,13.41
2022-09-18T23:21:57.170Z,13.46
2022-09-18T23:24:26.263Z,13.46
2022-09-18T23:26:58.650Z,13.47
2022-09-18T23:29:28.521Z,13.53
2022-09-18T23:31:57.423Z,13.52
2022-09-18T23:34:29.231Z,13.47
2022-09-18T23:36:58.197Z,13.50
2022-09-18T23:39:28.749Z,13.47
2022-09-18T23:41:59.442Z,13.45
2022-09-18T23:44:30.562Z,13.41
2022-09-18T23:46:59.419Z,13.37
2022-09-18T23:49:28.345Z,13.32
2022-09-18T23:51:56.732Z,13.25
2022-09-18T23:54:26.391Z,13.24
2022-09-18T23:56:57.484Z,13.03
2022-09-18T23:59:26.912Z,13.01
